Time,TemperatureF,DewpointF,PressureIn,WindDirection,WindDirectionDegrees,WindSpeedMPH,WindSpeedGustMPH,Humidity,HourlyPrecipIn,Conditions,Clouds,dailyrainin,SoftwareType,DateUTC
2014-02-12 00:12:00,44.0,42.0,29.84,ESE,123,0.0,3.0,94,0.00,,,0.09,,2014-02-12 08:12:00,
2014-02-12 00:22:00,44.0,42.0,29.83,ESE,123,0.0,4.0,94,0.00,,,0.07,,2014-02-12 08:22:00,
2014-02-12 00:42:00,44.0,43.0,29.82,ESE,123,0.0,4.0,95,0.01,,,0.08,,2014-02-12 08:42:00,
2014-02-12 00:52:00,44.0,43.0,29.81,ESE,123,0.0,2.0,95,0.01,,,0.08,,2014-02-12 08:52:00,
2014-02-12 01:11:00,43.0,42.0,29.80,ESE,123,0.0,0.0,95,0.01,,,0.08,,2014-02-12 09:11:00,
2014-02-12 01:21:00,43.0,42.0,29.79,ESE,123,0.0,0.0,95,0.02,,,0.09,,2014-02-12 09:21:00,
2014-02-12 01:43:00,43.0,42.0,29.80,ESE,123,0.0,0.0,95,0.01,,,0.09,,2014-02-12 09:43:00,
2014-02-12 01:53:00,47.0,46.0,29.79,South,179,9.0,14.0,96,0.01,,,0.09,,2014-02-12 09:53:00,
2014-02-12 02:13:00,49.0,47.0,29.79,SW,223,9.0,17.0,93,0.02,,,0.10,,2014-02-12 10:13:00,
2014-02-12 02:22:00,49.0,46.0,29.79,SW,233,6.0,19.0,90,0.01,,,0.10,,2014-02-12 10:22:00,
2014-02-12 02:43:00,50.0,47.0,29.80,South,186,10.0,18.0,90,0.01,,,0.10,,2014-02-12 10:43:00,
2014-02-12 02:53:00,50.0,47.0,29.79,South,173,6.0,22.0,90,0.02,,,0.11,,2014-02-12 10:53:00,
2014-02-12 03:12:00,50.0,47.0,29.79,SSW,198,9.0,17.0,90,0.01,,,0.11,,2014-02-12 11:12:00,
2014-02-12 03:22:00,51.0,48.0,29.79,South,184,5.0,17.0,89,0.01,,,0.11,,2014-02-12 11:22:00,
2014-02-12 03:42:00,51.0,48.0,29.79,SSW,209,11.0,22.0,89,0.01,,,0.11,,2014-02-12 11:42:00,
2014-02-12 03:52:00,51.0,48.0,29.79,SSW,209,11.0,22.0,89,0.01,,,0.11,,2014-02-12 11:52:00,
2014-02-12 04:02:00,51.0,48.0,29.79,SSW,209,11.0,22.0,89,0.01,,,0.11,,2014-02-12 12:02:00,
2014-02-12 04:11:00,51.0,48.0,29.79,SSW,209,11.0,22.0,89,0.01,,,0.11,,2014-02-12 12:11:00,
2014-02-12 14:13:00,51.0,48.0,29.98,SSW,199,0.0,1.0,89,0.01,,,0.13,,2014-02-12 22:13:00,
2014-02-12 14:23:00,51.0,48.0,29.98,SSW,199,0.0,4.0,91,0.01,,,0.11,,2014-02-12 22:23:00,
2014-02-12 14:43:00,50.0,47.0,29.98,SSW,199,0.0,0.0,91,0.01,,,0.11,,2014-02-12 22:43:00,
2014-02-12 14:53:00,50.0,48.0,29.97,SSW,199,0.0,0.0,92,0.01,,,0.11,,2014-02-12 22:53:00,
2014-02-12 15:12:00,50.0,48.0,29.97,SSW,199,0.0,0.0,92,0.00,,,0.11,,2014-02-12 23:12:00,
2014-02-12 15:22:00,50.0,48.0,29.97,SSW,199,0.0,0.0,92,0.00,,,0.09,,2014-02-12 23:22:00,
2014-02-12 15:42:00,50.0,48.0,29.96,SSW,199,0.0,0.0,92,0.00,,,0.09,,2014-02-12 23:42:00,
2014-02-12 15:53:00,50.0,48.0,29.96,SSW,199,0.0,0.0,93,0.00,,,0.09,,2014-02-12 23:53:00,
2014-02-12 16:11:00,50.0,48.0,29.96,SSW,199,0.0,3.0,93,0.01,,,0.10,,2014-02-13 00:11:00,
2014-02-12 16:22:00,50.0,48.0,29.95,SSW,199,0.0,0.0,94,0.01,,,0.10,,2014-02-13 00:22:00,
2014-02-12 16:42:00,50.0,48.0,29.95,SSW,199,0.0,4.0,94,0.02,,,0.11,,2014-02-13 00:42:00,
2014-02-12 16:52:00,50.0,48.0,29.96,SSW,199,0.0,0.0,94,0.03,,,0.12,,2014-02-13 00:52:00,
2014-02-12 17:11:00,50.0,48.0,29.95,SSW,199,0.0,0.0,94,0.03,,,0.13,,2014-02-13 01:11:00,
2014-02-12 17:21:00,50.0,48.0,29.94,SSW,199,0.0,0.0,94,0.03,,,0.12,,2014-02-13 01:21:00,
2014-02-12 17:42:00,49.0,48.0,29.94,SSW,199,0.0,0.0,95,0.02,,,0.12,,2014-02-13 01:42:00,
2014-02-12 17:52:00,49.0,48.0,29.94,SSW,199,0.0,0.0,95,0.01,,,0.12,,2014-02-13 01:52:00,
2014-02-12 18:11:00,49.0,48.0,29.93,SSW,199,0.0,0.0,95,0.00,,,0.12,,2014-02-13 02:11:00,
2014-02-12 18:21:00,49.0,48.0,29.93,SSW,199,2.0,4.0,95,0.00,,,0.12,,2014-02-13 02:21:00,
2014-02-12 19:11:00,49.0,48.0,29.93,SSW,199,0.0,0.0,95,0.03,,,0.15,,2014-02-13 03:11:00,
2014-02-12 19:21:00,48.0,47.0,29.93,SSW,199,0.0,0.0,95,0.05,,,0.15,,2014-02-13 03:21:00,
2014-02-12 19:43:00,49.0,48.0,29.93,SSW,199,0.0,1.0,96,0.06,,,0.17,,2014-02-13 03:43:00,
2014-02-12 19:53:00,50.0,49.0,29.92,SSW,199,5.0,10.0,96,0.05,,,0.17,,2014-02-13 03:53:00,
2014-02-12 20:13:00,52.0,51.0,29.92,SSW,205,5.0,10.0,96,0.04,,,0.17,,2014-02-13 04:13:00,
2014-02-12 20:23:00,53.0,51.0,29.92,SSW,212,6.0,19.0,94,0.01,,,0.17,,2014-02-13 04:23:00,
2014-02-12 20:43:00,53.0,51.0,29.92,SSW,205,5.0,15.0,92,0.00,,,0.17,,2014-02-13 04:43:00,
2014-02-12 20:53:00,53.0,50.0,29.92,SSW,196,8.0,15.0,90,0.00,,,0.17,,2014-02-13 04:53:00,
2014-02-12 21:12:00,54.0,51.0,29.91,SW,220,8.0,18.0,89,0.00,,,0.17,,2014-02-13 05:12:00,
2014-02-12 21:22:00,54.0,51.0,29.91,SW,219,5.0,15.0,88,0.00,,,0.17,,2014-02-13 05:22:00,
2014-02-12 21:43:00,54.0,51.0,29.91,SSW,193,10.0,20.0,88,0.00,,,0.17,,2014-02-13 05:43:00,
2014-02-12 21:52:00,54.0,51.0,29.90,South,184,10.0,16.0,88,0.00,,,0.17,,2014-02-13 05:52:00,
2014-02-12 22:12:00,54.0,50.0,29.90,SW,229,11.0,23.0,87,0.00,,,0.17,,2014-02-13 06:12:00,
2014-02-12 22:22:00,54.0,50.0,29.90,SSW,201,9.0,19.0,85,0.00,,,0.17,,2014-02-13 06:22:00,
2014-02-12 22:42:00,54.0,50.0,29.90,South,186,5.0,19.0,85,0.00,,,0.17,,2014-02-13 06:42:00,
2014-02-12 22:52:00,54.0,50.0,29.90,SSW,207,3.0,16.0,85,0.00,,,0.17,,2014-02-13 06:52:00,
2014-02-12 23:12:00,53.0,50.0,29.91,SSW,197,7.0,15.0,88,0.01,,,0.18,,2014-02-13 07:12:00,
2014-02-12 23:22:00,53.0,50.0,29.91,WSW,243,11.0,18.0,89,0.03,,,0.20,,2014-02-13 07:22:00,
2014-02-12 23:42:00,53.0,50.0,29.91,SW,219,11.0,21.0,89,0.03,,,0.20,,2014-02-13 07:42:00,
2014-02-12 23:53:00,53.0,50.0,29.92,SW,234,8.0,14.0,90,0.06,,,0.23,,2014-02-13 07:53:00,